Airfield :
LOGIN :

Register | Disclaimer

   EN    FR    IT 

 










Legend :    VFR   Marginal VFR   IFR   Intensive IFR   Very Intensive IFR
Visi :
Ceiling :
>= 8 km
>= 3000ft
5 to 8 km
1000 to 3000 ft
1500m to 5 km
500 to 1000 ft
800 to 1500m
200 to 500 ft
< 800m
< 200 ft
Symbols :   Thunderstorms  Fog  Heavy snow  Heavy precipitations  Wind > 20 kt
SIGMETs :     Misc.  Thunderstorms  Icing  Turbulence  Mountain Waves  Volcanic Ashes






- Airport Elevation : 370 ft


EBBE - Beauvechain AB

CURRENT METAR :
  • 121455Z 23004KT 9999 FEW060 SCT230 34/18 Q1012 BLU BLU

EXPIRED METARs :
  • 121425Z 34003KT 9999 FEW070 SCT230 33/18 Q1012 BLU BLU
  • 121355Z 18003KT 9999 FEW070 SCT230 32/18 Q1013 BLU BLU
  • 121325Z 26004KT 9999 FEW070 SCT230 32/18 Q1013 BLU BLU
  • 121255Z VRB02KT 9999 SCT230 31/18 Q1013 BLU BLU
  • 121225Z VRB01KT 9999 SCT230 32/18 Q1013 BLU BLU
  • 121155Z 16003KT 9999 SCT230 30/17 Q1014 BLU BLU

TAF TAF EBBE
Valid from the 12 at 13:00 until the 12 at 22:00 UTC


121141Z 1213/1222 09005KT 9999 SCT200
PROB40
TEMPO 1213/1222 VRB15G35KT 4000 -TSRA SCT007 BKN040CB
PROB30
TEMPO 1213/1222 VRB20G40KT 2000 TSRAGR SCT005 BKN030CB



MET'MAP, your aeronautical weather chart ! - Copyright ORBIFLY December 2007 - Disclaimer

ORBIFLY MET'MAP TEAM :

Programming & Development : Alexandra Zaïnal
Concept & original design : Baudouin d'Aumeries
Assistance for programming : Marc-Olivier Méhu
Technical & hardware support : Manuel Goepfert

Contact : metmap@orbifly.com




SOURCES & CREDITS :

   NOAA